Time;durP1;ratioP1;P1;durP2;ratioP2;P2;SDS_P1;SDS_P2;PMS_P1;PMS_P2;Temp;Humidity;BMP_temperature;BMP_pressure;BME280_temperature;BME280_humidity;BME280_pressure;Samples;Min_cycle;Max_cycle;Signal;HPM_P1;HPM_P2
2022/11/22 00:00:35;;;;;;;9.50;4.10;;;;;;;6.58;92.05;97997.72;6168578;23;20032;-81
2022/11/22 00:03:02;;;;;;;7.15;3.75;;;;;;;6.60;92.04;97992.31;6169144;23;20433;-81
2022/11/22 00:05:29;;;;;;;5.38;3.40;;;;;;;6.62;91.75;97983.25;6194485;23;20025;-81
2022/11/22 00:07:55;;;;;;;8.40;4.22;;;;;;;6.64;91.61;97981.28;6145196;23;20022;-83
2022/11/22 00:10:22;;;;;;;6.72;4.00;;;;;;;6.67;91.57;97972.25;6169363;23;20025;-81
2022/11/22 00:12:49;;;;;;;9.05;4.82;;;;;;;6.70;91.29;97974.56;6143904;23;20018;-81
2022/11/22 00:15:15;;;;;;;7.10;4.05;;;;;;;6.66;91.90;97968.75;6121151;23;20450;-81
2022/11/22 00:17:42;;;;;;;9.13;4.45;;;;;;;6.71;91.22;97957.72;6193313;23;20017;-81
2022/11/22 00:20:13;;;;;;;6.00;3.85;;;;;;;6.65;92.07;97958.38;6144456;23;20068;-81
2022/11/22 00:22:39;;;;;;;7.75;4.40;;;;;;;6.66;91.83;97960.84;6193179;23;20033;-81
2022/11/22 00:25:10;;;;;;;11.05;4.70;;;;;;;6.66;91.68;97944.19;6168815;23;20021;-81
2022/11/22 00:27:37;;;;;;;8.05;4.30;;;;;;;6.65;91.71;97940.72;6144054;23;20088;-81
2022/11/22 00:30:04;;;;;;;10.68;4.45;;;;;;;6.61;91.92;97947.28;6169562;23;20542;-81
2022/11/22 00:32:31;;;;;;;8.95;5.10;;;;;;;6.59;92.15;97951.94;6193028;23;20021;-81
2022/11/22 00:34:58;;;;;;;7.70;4.50;;;;;;;6.60;91.82;97934.28;6119192;23;20068;-81
2022/11/22 00:37:24;;;;;;;7.80;4.47;;;;;;;6.63;91.38;97933.97;6119550;23;20370;-81
2022/11/22 00:39:51;;;;;;;7.20;4.65;;;;;;;6.66;91.10;97938.91;6144450;23;20032;-81
2022/11/22 00:42:18;;;;;;;9.43;4.28;;;;;;;6.63;91.13;97939.25;6144482;23;20096;-81
2022/11/22 00:44:44;;;;;;;14.65;5.30;;;;;;;6.63;91.32;97937.41;6143577;23;20080;-81
2022/11/22 00:47:11;;;;;;;12.75;4.72;;;;;;;6.64;91.82;97939.09;6143871;23;20076;-81
2022/11/22 00:49:38;;;;;;;10.63;4.65;;;;;;;6.65;92.10;97942.56;6169439;23;20344;-81
2022/11/22 00:52:05;;;;;;;8.13;4.53;;;;;;;6.66;92.23;97944.19;6168242;23;20017;-81
2022/11/22 00:54:32;;;;;;;7.82;5.13;;;;;;;6.65;92.09;97939.91;6169126;23;20033;-81
2022/11/22 00:56:58;;;;;;;7.82;4.55;;;;;;;6.64;92.41;97943.50;6144064;23;20057;-81
2022/11/22 00:59:25;;;;;;;8.75;5.10;;;;;;;6.65;92.62;97939.91;6119565;23;20018;-81
2022/11/22 01:01:52;;;;;;;9.75;4.32;;;;;;;6.62;92.86;97940.22;6192047;23;20100;-85
2022/11/22 01:04:19;;;;;;;7.65;4.80;;;;;;;6.66;92.94;97947.66;6168262;23;20030;-81
2022/11/22 01:06:46;;;;;;;10.40;4.53;;;;;;;6.63;92.94;97958.53;6168970;23;20022;-81
2022/11/22 01:09:18;;;;;;;9.02;4.80;;;;;;;6.59;93.30;97967.75;6194700;23;20013;-81
2022/11/22 01:11:44;;;;;;;9.52;4.57;;;;;;;6.64;92.93;97973.38;6117404;23;20029;-84
2022/11/22 01:14:11;;;;;;;10.48;4.90;;;;;;;6.64;92.90;97983.06;6144359;23;20437;-81
2022/11/22 01:16:38;;;;;;;11.52;5.22;;;;;;;6.67;92.44;97977.50;6143487;23;20076;-81
2022/11/22 01:19:05;;;;;;;11.07;5.55;;;;;;;6.62;92.64;97988.53;6144496;23;20049;-81
2022/11/22 01:21:32;;;;;;;7.22;5.20;;;;;;;6.65;92.58;97988.22;6119157;23;20458;-81
2022/11/22 01:23:59;;;;;;;10.00;6.00;;;;;;;6.66;92.77;97997.75;6143997;23;20041;-82
2022/11/22 01:26:25;;;;;;;10.90;5.53;;;;;;;6.68;92.99;97997.63;6168516;23;20017;-81
2022/11/22 01:28:52;;;;;;;13.43;5.90;;;;;;;6.66;93.20;98000.41;6144044;23;20454;-81
2022/11/22 01:31:19;;;;;;;11.18;5.60;;;;;;;6.66;93.36;97997.75;6167187;23;20401;-81
2022/11/22 01:33:45;;;;;;;13.15;5.40;;;;;;;6.67;93.59;98002.06;6169109;23;20021;-81
2022/11/22 01:36:12;;;;;;;7.65;4.45;;;;;;;6.66;93.57;97995.13;6144738;23;20117;-80
2022/11/22 01:38:39;;;;;;;9.82;5.80;;;;;;;6.69;93.88;97993.97;6192988;23;20021;-81
2022/11/22 01:41:05;;;;;;;8.85;5.20;;;;;;;6.68;93.92;97997.63;6193982;23;20014;-80
2022/11/22 01:43:32;;;;;;;7.60;5.40;;;;;;;6.69;94.05;97992.19;6192718;22;20025;-81
2022/11/22 01:46:08;;;;;;;12.20;5.07;;;;;;;6.68;93.82;97993.16;6193851;23;20661;-82
2022/11/22 01:48:44;;;;;;;10.13;5.07;;;;;;;6.63;94.88;97998.06;6119197;23;20025;-81
2022/11/22 01:51:29;;;;;;;9.82;5.30;;;;;;;6.62;95.48;97991.16;6116367;23;20021;-81
2022/11/22 01:53:59;;;;;;;7.60;5.05;;;;;;;6.69;94.76;97991.34;6118315;23;20028;-81
2022/11/22 01:56:27;;;;;;;7.85;5.57;;;;;;;6.70;94.66;97990.38;6119180;23;20087;-80
2022/11/22 01:58:59;;;;;;;12.52;6.10;;;;;;;6.70;94.99;97993.84;6143684;23;20045;-80
2022/11/22 02:01:26;;;;;;;10.35;6.35;;;;;;;6.72;94.71;97991.88;6143447;23;20100;-80
2022/11/22 02:03:55;;;;;;;10.13;5.13;;;;;;;6.71;95.07;97998.13;6118224;23;20021;-80
2022/11/22 02:06:22;;;;;;;13.35;6.50;;;;;;;6.71;95.48;97997.28;6193700;23;20034;-81
2022/11/22 02:08:59;;;;;;;10.40;6.00;;;;;;;6.65;95.65;98001.41;6194082;23;20022;-80
2022/11/22 02:11:26;;;;;;;10.38;5.70;;;;;;;6.73;94.81;98000.63;6142532;23;20464;-80
2022/11/22 02:14:00;;;;;;;11.43;5.80;;;;;;;6.72;95.16;98002.44;6190635;23;20017;-81
2022/11/22 02:16:26;;;;;;;11.00;6.35;;;;;;;6.72;95.33;98006.88;6192301;22;20072;-81
2022/11/22 02:18:53;;;;;;;12.02;6.82;;;;;;;6.72;95.32;98012.97;6192789;23;20333;-83
2022/11/22 02:21:20;;;;;;;13.13;6.20;;;;;;;6.77;95.00;98003.75;6168548;23;20028;-81
2022/11/22 02:24:05;;;;;;;11.20;5.78;;;;;;;6.64;96.18;98004.19;6168413;23;20480;-81
2022/11/22 02:26:32;;;;;;;16.00;7.25;;;;;;;6.74;95.25;98008.38;6120274;23;20017;-81
2022/11/22 02:29:01;;;;;;;11.82;6.95;;;;;;;6.72;95.16;98005.06;6192162;22;20048;-81
2022/11/22 02:31:34;;;;;;;9.07;6.30;;;;;;;6.68;95.55;98001.06;6118526;23;20027;-80
2022/11/22 02:34:01;;;;;;;8.80;6.28;;;;;;;6.71;95.44;98011.31;6167368;23;20022;-80
2022/11/22 02:36:29;;;;;;;8.52;6.13;;;;;;;6.76;95.28;98010.84;6193456;23;20018;-81
2022/11/22 02:38:56;;;;;;;10.75;5.82;;;;;;;6.80;95.20;98016.66;6167580;23;20034;-84
2022/11/22 02:41:23;;;;;;;11.90;6.72;;;;;;;6.80;95.39;98017.47;6168469;23;20025;-80
2022/11/22 02:43:49;;;;;;;13.55;6.38;;;;;;;6.82;95.37;98019.94;6167948;23;20021;-81
2022/11/22 02:46:19;;;;;;;10.95;6.25;;;;;;;6.82;95.57;98017.31;6193665;23;22188;-81
2022/11/22 02:48:46;;;;;;;9.25;5.55;;;;;;;6.85;95.54;98031.03;6166434;23;20021;-80
2022/11/22 02:51:15;;;;;;;9.70;5.88;;;;;;;6.85;95.35;98022.28;6168389;23;20343;-81
2022/11/22 02:53:43;;;;;;;13.85;6.10;;;;;;;6.85;95.77;98019.66;6192870;23;20096;-81
2022/11/22 02:56:09;;;;;;;10.20;5.63;;;;;;;6.83;96.18;98011.88;6167985;23;20346;-80
2022/11/22 02:58:36;;;;;;;9.73;5.47;;;;;;;6.87;95.55;98013.22;6193829;23;20040;-80
2022/11/22 03:01:03;;;;;;;8.57;5.78;;;;;;;6.86;95.72;98029.22;6193156;22;20520;-81
2022/11/22 03:03:31;;;;;;;10.80;5.68;;;;;;;6.87;95.84;98028.22;6167634;23;20023;-82
2022/11/22 03:05:57;;;;;;;7.57;5.45;;;;;;;6.86;95.98;98030.03;6170291;23;20413;-80
2022/11/22 03:08:24;;;;;;;11.25;5.88;;;;;;;6.84;96.27;98033.81;6195370;23;20022;-81
2022/11/22 03:10:51;;;;;;;10.50;5.63;;;;;;;6.85;96.45;98033.66;6194862;23;20457;-81
2022/11/22 03:13:17;;;;;;;7.05;5.53;;;;;;;6.89;95.63;98034.16;6169988;22;20017;-81
2022/11/22 03:15:47;;;;;;;8.63;5.20;;;;;;;6.86;96.16;98026.56;6194876;23;20032;-81
2022/11/22 03:18:14;;;;;;;11.80;6.03;;;;;;;6.84;96.21;98032.00;6194396;23;20075;-81
2022/11/22 03:20:40;;;;;;;9.85;5.43;;;;;;;6.87;96.31;98028.22;6194280;23;22154;-82
2022/11/22 03:23:07;;;;;;;11.05;5.18;;;;;;;6.86;96.15;98032.66;6145489;23;20013;-81
2022/11/22 03:25:38;;;;;;;9.27;5.70;;;;;;;6.84;96.49;98021.44;6170284;23;20091;-81
2022/11/22 03:28:04;;;;;;;12.85;5.63;;;;;;;6.86;96.74;98027.38;6120920;23;20029;-81
2022/11/22 03:30:31;;;;;;;12.35;4.97;;;;;;;6.87;96.66;98030.84;6195401;23;20052;-80
2022/11/22 03:32:58;;;;;;;8.68;4.72;;;;;;;6.88;96.75;98037.81;6120177;23;20021;-81
2022/11/22 03:35:24;;;;;;;8.65;4.97;;;;;;;6.90;96.10;98031.38;6168969;23;20026;-81
2022/11/22 03:37:51;;;;;;;11.25;4.82;;;;;;;6.89;96.56;98024.44;6170266;23;20380;-81
2022/11/22 03:40:19;;;;;;;9.30;4.35;;;;;;;6.90;96.16;98018.19;6194922;22;20022;-81
2022/11/22 03:42:46;;;;;;;7.53;4.45;;;;;;;6.93;96.18;98033.69;6169159;23;20037;-81
2022/11/22 03:45:13;;;;;;;10.15;3.53;;;;;;;6.96;95.90;98040.47;6194430;23;20022;-84
2022/11/22 03:47:40;;;;;;;5.47;3.08;;;;;;;6.99;95.63;98042.78;6121195;23;20031;-81
2022/11/22 03:50:07;;;;;;;4.90;3.08;;;;;;;7.05;95.18;98051.91;6194615;23;20345;-80
2022/11/22 03:52:33;;;;;;;6.55;2.83;;;;;;;7.08;95.21;98043.69;6145549;23;20024;-80
2022/11/22 03:55:00;;;;;;;6.95;2.17;;;;;;;7.11;95.18;98044.19;6144497;23;20025;-81
2022/11/22 03:57:27;;;;;;;6.22;2.30;;;;;;;7.14;95.31;98050.97;6194585;23;20021;-81
2022/11/22 03:59:53;;;;;;;10.20;2.15;;;;;;;7.15;95.06;98050.00;6195311;23;20562;-81
2022/11/22 04:02:20;;;;;;;6.20;1.83;;;;;;;7.16;95.20;98052.44;6194402;23;20347;-81
2022/11/22 04:04:47;;;;;;;10.45;2.30;;;;;;;7.20;95.05;98052.13;6143948;23;20025;-81
2022/11/22 04:07:14;;;;;;;7.30;2.10;;;;;;;7.23;94.83;98062.41;6144871;23;20021;-81
2022/11/22 04:09:41;;;;;;;7.30;3.20;;;;;;;7.25;95.01;98066.53;6194856;23;20100;-81
2022/11/22 04:12:07;;;;;;;5.95;2.47;;;;;;;7.25;94.97;98061.25;6192609;23;20417;-82
2022/11/22 04:17:39;;;;;;;11.25;3.50;;;;;;;7.25;95.14;98063.03;6096791;23;20033;-81
2022/11/22 04:23:01;;;;;;;8.57;2.42;;;;;;;7.24;95.02;98077.25;6098934;23;20100;-81
2022/11/22 04:25:30;;;;;;;8.07;2.20;;;;;;;7.26;95.08;98067.34;6168419;23;20034;-81
2022/11/22 04:27:57;;;;;;;6.57;1.95;;;;;;;7.27;95.01;98069.00;6143426;23;20073;-81
2022/11/22 04:33:10;;;;;;;9.75;2.00;;;;;;;7.26;95.18;98067.34;6120718;23;20036;-86
2022/11/22 04:35:38;;;;;;;8.35;2.30;;;;;;;7.27;94.88;98066.34;6193619;23;20021;-83
2022/11/22 04:38:05;;;;;;;6.35;1.83;;;;;;;7.28;94.93;98071.50;6118800;23;20024;-82
2022/11/22 04:40:32;;;;;;;7.53;1.80;;;;;;;7.28;94.89;98065.38;6167563;23;20053;-81
2022/11/22 04:45:45;;;;;;;10.27;1.88;;;;;;;7.26;94.79;98059.44;6117177;23;20500;-80
2022/11/22 04:48:12;;;;;;;4.32;1.80;;;;;;;7.27;94.67;98061.91;6169280;23;20080;-81
2022/11/22 04:53:26;;;;;;;8.43;2.13;;;;;;;7.28;94.55;98063.56;6099841;23;20021;-81
2022/11/22 04:55:53;;;;;;;12.15;2.28;;;;;;;7.30;94.56;98060.75;6163865;23;20398;-81
2022/11/22 04:58:20;;;;;;;11.32;2.50;;;;;;;7.30;94.73;98064.25;6169201;23;20017;-81
2022/11/22 05:00:47;;;;;;;13.38;2.70;;;;;;;7.31;94.41;98062.44;6169051;23;20025;-81
2022/11/22 05:03:15;;;;;;;18.50;2.80;;;;;;;7.31;94.60;98067.72;6118611;23;20036;-83
2022/11/22 05:05:42;;;;;;;15.02;3.33;;;;;;;7.31;94.37;98070.34;6144817;23;20017;-82
2022/11/22 05:08:10;;;;;;;15.38;4.35;;;;;;;7.29;94.39;98067.03;6167244;23;20024;-82
2022/11/22 05:13:29;;;;;;;18.35;6.18;;;;;;;7.22;94.18;98066.81;6141830;23;20017;-82
2022/11/22 05:15:57;;;;;;;9.95;5.55;;;;;;;7.23;94.03;98068.50;6118792;23;20040;-83
2022/11/22 05:18:25;;;;;;;12.25;6.03;;;;;;;7.21;94.11;98075.75;6143144;23;20096;-82
2022/11/22 05:20:52;;;;;;;10.63;3.83;;;;;;;7.20;94.08;98071.47;6166844;23;20028;-82
2022/11/22 05:26:06;;;;;;;11.77;2.28;;;;;;;7.10;94.53;98079.50;6049315;23;20092;-81
2022/11/22 05:28:35;;;;;;;8.13;2.03;;;;;;;7.06;94.46;98082.59;6168260;23;20099;-82
2022/11/22 05:31:08;;;;;;;9.90;2.10;;;;;;;6.96;94.66;98082.69;6112669;23;20021;-81
2022/11/22 05:33:37;;;;;;;7.50;2.47;;;;;;;6.93;94.57;98081.19;6193253;23;20025;-81
2022/11/22 05:36:05;;;;;;;9.35;2.22;;;;;;;6.88;94.54;98080.84;6143348;23;20096;-81
2022/11/22 05:38:34;;;;;;;9.13;1.98;;;;;;;6.85;94.75;98091.72;6168675;23;20457;-81
2022/11/22 05:41:04;;;;;;;8.63;1.90;;;;;;;6.81;94.60;98085.06;6168156;23;20458;-81
2022/11/22 05:43:31;;;;;;;9.43;2.25;;;;;;;6.77;94.31;98099.56;6217395;22;20039;-82
2022/11/22 05:46:21;;;;;;;6.07;1.90;;;;;;;6.62;94.25;98095.84;6168762;23;20097;-81
2022/11/22 05:48:52;;;;;;;9.88;1.95;;;;;;;6.69;94.63;98104.75;6119229;23;20413;-82
2022/11/22 05:51:20;;;;;;;7.60;1.90;;;;;;;6.66;94.39;98105.91;6169368;23;20357;-81
2022/11/22 05:53:47;;;;;;;8.23;1.90;;;;;;;6.65;94.26;98104.25;6189569;23;20461;-81
2022/11/22 05:56:19;;;;;;;14.88;1.85;;;;;;;6.60;94.64;98114.44;6114610;23;20042;-81
2022/11/22 05:58:46;;;;;;;7.45;2.00;;;;;;;6.58;94.47;98113.75;6193796;23;20025;-81
2022/11/22 06:01:15;;;;;;;6.97;1.80;;;;;;;6.58;94.39;98118.22;6193480;23;20017;-81
2022/11/22 06:03:42;;;;;;;9.27;2.13;;;;;;;6.57;94.55;98124.47;6118596;23;20033;-82
2022/11/22 06:06:09;;;;;;;9.45;1.80;;;;;;;6.59;94.58;98138.31;6168860;23;20014;-81
2022/11/22 06:08:39;;;;;;;7.38;2.90;;;;;;;6.57;94.40;98146.38;6168126;23;20022;-81
2022/11/22 06:11:20;;;;;;;12.73;2.53;;;;;;;6.51;94.31;98141.72;6094440;23;20021;-81
2022/11/22 06:13:52;;;;;;;12.77;3.55;;;;;;;6.55;94.31;98150.16;6144202;23;20353;-81
2022/11/22 06:16:19;;;;;;;7.72;2.05;;;;;;;6.55;94.74;98152.78;6193364;23;20105;-81
2022/11/22 06:18:46;;;;;;;14.02;2.13;;;;;;;6.58;94.36;98158.59;6167355;23;20018;-81
2022/11/22 06:21:15;;;;;;;7.32;2.60;;;;;;;6.53;94.79;98156.41;6119395;23;20022;-81
2022/11/22 06:23:42;;;;;;;6.18;1.83;;;;;;;6.58;94.36;98152.50;6168228;23;20480;-81
2022/11/22 06:26:11;;;;;;;13.23;3.22;;;;;;;6.55;94.46;98160.72;6192515;23;20345;-81
2022/11/22 06:28:38;;;;;;;7.00;2.30;;;;;;;6.52;94.77;98165.31;6142882;23;20457;-81
2022/11/22 06:31:07;;;;;;;8.98;2.22;;;;;;;6.51;94.27;98168.94;6168764;23;20025;-81
2022/11/22 06:33:34;;;;;;;11.05;2.22;;;;;;;6.49;94.29;98173.50;6118311;23;20022;-81
2022/11/22 06:36:09;;;;;;;11.32;2.53;;;;;;;6.46;94.32;98176.47;6142604;23;20028;-81
2022/11/22 06:38:37;;;;;;;13.35;2.97;;;;;;;6.51;94.48;98183.91;6093877;23;20042;-85
2022/11/22 06:41:06;;;;;;;9.48;2.25;;;;;;;6.55;94.53;98190.53;6085881;23;20089;-81
2022/11/22 06:43:34;;;;;;;12.07;2.50;;;;;;;6.56;94.51;98183.44;6036945;23;20105;-81
2022/11/22 06:46:02;;;;;;;6.20;2.22;;;;;;;6.57;94.86;98193.84;6085528;23;20081;-81
2022/11/22 06:48:30;;;;;;;9.90;2.35;;;;;;;6.57;95.27;98193.03;6108603;23;20077;-82
2022/11/22 06:50:58;;;;;;;8.20;2.10;;;;;;;6.57;95.20;98200.94;6061116;23;20030;-81
2022/11/22 06:53:29;;;;;;;6.57;2.17;;;;;;;6.55;95.46;98205.53;6060901;23;20048;-81
2022/11/22 06:56:31;;;;;;;10.40;2.20;;;;;;;6.52;95.46;98212.75;6034889;23;20115;-81
2022/11/22 06:59:00;;;;;;;14.73;3.42;;;;;;;6.55;95.34;98211.63;6001503;23;20026;-81
2022/11/22 07:01:28;;;;;;;14.32;4.32;;;;;;;6.56;95.36;98223.00;6060849;23;20537;-81
2022/11/22 07:03:56;;;;;;;29.25;9.32;;;;;;;6.55;95.56;98231.91;6060121;23;20480;-81
2022/11/22 07:06:29;;;;;;;27.90;8.57;;;;;;;6.56;95.10;98236.19;6036934;23;20023;-81
2022/11/22 07:08:58;;;;;;;27.33;8.38;;;;;;;6.60;94.91;98237.56;6087603;23;20022;-81
2022/11/22 07:11:26;;;;;;;23.75;8.30;;;;;;;6.55;95.08;98240.63;6189273;23;20029;-81
2022/11/22 07:13:55;;;;;;;16.52;5.50;;;;;;;6.56;94.76;98244.94;6139803;23;20450;-81
2022/11/22 07:16:25;;;;;;;10.83;4.00;;;;;;;6.55;95.19;98245.09;6067130;23;20470;-81
2022/11/22 07:18:52;;;;;;;11.13;3.60;;;;;;;6.58;94.57;98242.97;6086850;23;20410;-82
2022/11/22 07:21:21;;;;;;;13.70;3.08;;;;;;;6.58;94.66;98244.78;6135460;23;20026;-81
2022/11/22 07:23:52;;;;;;;14.70;3.28;;;;;;;6.61;94.70;98253.22;6086017;23;20023;-81
2022/11/22 07:26:20;;;;;;;24.45;3.03;;;;;;;6.61;94.69;98258.50;6067112;23;20030;-81
2022/11/22 07:28:47;;;;;;;12.93;2.72;;;;;;;6.62;94.62;98254.06;6091831;23;20529;-81
2022/11/22 07:31:15;;;;;;;11.38;2.60;;;;;;;6.69;94.33;98255.97;6111724;23;20065;-81
2022/11/22 07:33:42;;;;;;;13.50;2.45;;;;;;;6.72;93.92;98263.56;6089777;23;20443;-81
2022/11/22 07:36:12;;;;;;;15.40;2.50;;;;;;;6.74;93.89;98258.97;6115420;23;20026;-81
2022/11/22 07:38:39;;;;;;;10.40;2.38;;;;;;;6.74;94.26;98264.25;6067398;23;20022;-81
2022/11/22 07:41:06;;;;;;;8.65;2.75;;;;;;;6.77;94.04;98262.28;6114195;23;20030;-81
2022/11/22 07:43:33;;;;;;;22.45;4.75;;;;;;;6.79;93.86;98271.69;6139378;23;20351;-81
2022/11/22 07:46:42;;;;;;;13.65;5.20;;;;;;;6.72;94.07;98282.03;6043780;23;20030;-81
2022/11/22 07:49:12;;;;;;;16.83;4.80;;;;;;;6.77;93.90;98286.88;6010854;23;20029;-81
2022/11/22 07:51:39;;;;;;;12.73;5.15;;;;;;;6.81;94.07;98295.31;6089667;23;20033;-81
2022/11/22 07:54:06;;;;;;;9.52;4.63;;;;;;;6.81;93.82;98284.75;6114234;23;20081;-85
2022/11/22 07:56:33;;;;;;;10.65;2.80;;;;;;;6.84;94.21;98287.91;6067415;23;20017;-80
2022/11/22 07:59:00;;;;;;;12.80;3.92;;;;;;;6.85;94.29;98291.41;6115669;23;20358;-81
2022/11/22 08:01:26;;;;;;;12.80;3.13;;;;;;;6.85;94.66;98302.78;6066317;23;20026;-81
2022/11/22 08:03:53;;;;;;;10.75;2.83;;;;;;;6.86;94.78;98301.78;6139448;23;20030;-81
2022/11/22 08:06:20;;;;;;;12.20;2.83;;;;;;;6.89;94.41;98300.66;6066470;23;20045;-81
2022/11/22 08:08:47;;;;;;;8.38;2.03;;;;;;;6.87;94.87;98298.19;6139543;23;20022;-81
2022/11/22 08:11:13;;;;;;;11.52;2.45;;;;;;;6.92;94.81;98317.03;6114371;23;20041;-81
2022/11/22 08:13:40;;;;;;;12.70;2.70;;;;;;;6.93;95.22;98312.56;6114463;23;20475;-81
2022/11/22 08:16:12;;;;;;;13.52;3.42;;;;;;;6.92;95.24;98319.66;6067692;23;20398;-81
2022/11/22 08:18:39;;;;;;;11.57;2.45;;;;;;;6.94;95.50;98327.41;5978439;23;20027;-81
2022/11/22 08:21:11;;;;;;;9.13;2.95;;;;;;;6.95;95.33;98315.91;6055368;23;20027;-81
2022/11/22 08:23:38;;;;;;;9.95;3.03;;;;;;;6.98;95.27;98315.59;6029770;23;20027;-81
2022/11/22 08:26:06;;;;;;;19.55;3.42;;;;;;;6.99;95.63;98313.78;6078962;23;20423;-81
2022/11/22 08:28:33;;;;;;;13.05;3.05;;;;;;;7.02;95.38;98319.59;6054632;23;20030;-82
2022/11/22 08:31:09;;;;;;;8.40;3.25;;;;;;;6.99;96.16;98325.16;6079935;23;20022;-81
2022/11/22 08:33:36;;;;;;;9.98;2.65;;;;;;;7.04;96.00;98320.25;6029476;23;20029;-81
2022/11/22 08:36:03;;;;;;;14.90;2.72;;;;;;;7.06;95.92;98320.13;6078948;23;20023;-81
2022/11/22 08:38:30;;;;;;;13.73;3.20;;;;;;;7.09;95.65;98319.81;6055870;23;20041;-81
2022/11/22 08:40:57;;;;;;;12.77;1.92;;;;;;;7.11;95.39;98326.59;6076914;23;20030;-81
2022/11/22 08:43:23;;;;;;;8.40;2.20;;;;;;;7.13;95.63;98318.53;6078321;23;20029;-82
2022/11/22 08:45:55;;;;;;;10.55;2.10;;;;;;;7.13;95.41;98322.00;6055922;23;20023;-81
2022/11/22 08:48:23;;;;;;;12.85;2.05;;;;;;;7.16;95.60;98313.78;6078366;23;20031;-81
2022/11/22 08:50:55;;;;;;;8.38;2.03;;;;;;;7.17;95.50;98317.25;6085728;23;20101;-81
2022/11/22 08:53:22;;;;;;;9.10;2.15;;;;;;;7.20;95.40;98305.56;6065912;23;20437;-81
2022/11/22 08:55:50;;;;;;;9.70;2.25;;;;;;;7.21;95.47;98304.59;6114582;23;20029;-81
2022/11/22 08:58:17;;;;;;;12.38;3.40;;;;;;;7.23;95.57;98302.63;6138251;23;20037;-81
2022/11/22 09:00:44;;;;;;;14.07;4.53;;;;;;;7.24;95.59;98318.31;6163514;23;20139;-81
2022/11/22 09:03:10;;;;;;;9.45;4.20;;;;;;;7.26;95.46;98304.97;6088905;23;20446;-81
2022/11/22 09:05:37;;;;;;;10.40;4.00;;;;;;;7.27;95.55;98301.31;6114564;23;20105;-81
2022/11/22 09:08:24;;;;;;;14.25;3.88;;;;;;;7.28;95.68;98311.75;6076780;23;20030;-81
2022/11/22 09:10:51;;;;;;;13.43;2.70;;;;;;;7.30;95.89;98309.78;6113856;23;20081;-81
2022/11/22 09:13:18;;;;;;;14.68;2.63;;;;;;;7.31;95.97;98308.78;6137357;23;20439;-82
2022/11/22 09:15:45;;;;;;;14.05;2.95;;;;;;;7.32;95.68;98302.53;6138733;23;20037;-81
2022/11/22 09:18:11;;;;;;;15.27;2.90;;;;;;;7.34;95.74;98311.13;6097232;23;20025;-81
2022/11/22 09:20:38;;;;;;;12.32;3.03;;;;;;;7.35;95.58;98304.88;6143755;23;20017;-82
2022/11/22 09:23:05;;;;;;;6.97;1.80;;;;;;;7.36;95.67;98305.72;6168078;23;20018;-81
2022/11/22 09:25:32;;;;;;;12.35;2.83;;;;;;;7.35;95.58;98311.94;6193456;23;20690;-81
2022/11/22 09:28:01;;;;;;;14.73;3.33;;;;;;;7.37;95.69;98312.63;6192457;23;20039;-82
2022/11/22 09:30:29;;;;;;;9.50;3.15;;;;;;;7.37;95.44;98302.91;6167567;23;20476;-83
2022/11/22 09:32:56;;;;;;;12.20;4.07;;;;;;;7.38;95.51;98301.09;6168058;23;20040;-81
2022/11/22 09:35:23;;;;;;;8.93;4.78;;;;;;;7.39;95.82;98311.50;6142889;23;20056;-81
2022/11/22 09:37:49;;;;;;;13.38;4.70;;;;;;;7.43;95.52;98311.19;6168151;23;20037;-84
2022/11/22 09:40:16;;;;;;;12.68;5.95;;;;;;;7.44;95.53;98302.31;6091741;23;20362;-81
2022/11/22 09:43:06;;;;;;;10.23;4.68;;;;;;;7.39;95.59;98306.22;6167993;23;20092;-81
2022/11/22 09:45:42;;;;;;;15.95;3.10;;;;;;;7.47;95.21;98307.28;6096843;23;20084;-81
2022/11/22 09:48:35;;;;;;;7.88;3.13;;;;;;;7.43;95.27;98297.97;6140240;23;20128;-81
2022/11/22 09:51:11;;;;;;;13.43;2.95;;;;;;;7.47;95.25;98299.34;6109955;23;20390;-85
2022/11/22 09:53:48;;;;;;;13.48;3.25;;;;;;;7.47;95.57;98302.00;6114758;23;20026;-81
2022/11/22 09:56:17;;;;;;;18.35;3.20;;;;;;;7.52;95.29;98297.91;6141895;23;20130;-81
2022/11/22 09:58:47;;;;;;;10.95;2.83;;;;;;;7.53;95.33;98302.22;6167713;23;20021;-82
2022/11/22 10:01:19;;;;;;;11.50;2.88;;;;;;;7.55;95.21;98308.16;6168154;23;20108;-81
2022/11/22 10:04:25;;;;;;;7.35;2.88;;;;;;;7.52;95.17;98310.28;6142654;23;20024;-81
2022/11/22 10:06:56;;;;;;;12.68;2.88;;;;;;;7.56;95.12;98312.47;6103097;23;20018;-81
2022/11/22 10:09:35;;;;;;;6.90;2.92;;;;;;;7.57;95.25;98319.38;6187572;23;20026;-81
2022/11/22 10:12:07;;;;;;;7.90;3.33;;;;;;;7.60;95.08;98323.53;6163562;23;20100;-81
2022/11/22 10:14:39;;;;;;;12.20;5.25;;;;;;;7.59;95.35;98327.19;6116521;23;20080;-85
2022/11/22 10:17:19;;;;;;;15.43;3.05;;;;;;;7.58;95.15;98325.50;6140551;23;20030;-82
2022/11/22 10:20:01;;;;;;;11.40;2.63;;;;;;;7.60;94.98;98329.66;6160479;23;20049;-82
2022/11/22 10:22:28;;;;;;;10.38;2.55;;;;;;;7.68;95.02;98328.06;6087600;23;20442;-82
2022/11/22 10:24:58;;;;;;;5.57;3.13;;;;;;;7.69;95.08;98333.19;6114740;23;20076;-81
2022/11/22 10:27:30;;;;;;;11.15;2.47;;;;;;;7.69;94.97;98333.19;6088427;23;20476;-82
2022/11/22 10:30:05;;;;;;;9.88;2.72;;;;;;;7.70;94.46;98339.31;6086834;23;20371;-83
2022/11/22 10:32:36;;;;;;;10.27;2.70;;;;;;;7.75;94.77;98347.59;6118273;23;20026;-81
2022/11/22 10:35:12;;;;;;;19.35;3.35;;;;;;;7.73;94.55;98346.91;6193425;23;20041;-81
2022/11/22 10:37:50;;;;;;;8.93;2.20;;;;;;;7.75;94.27;98342.31;6118593;23;20018;-82
2022/11/22 10:40:42;;;;;;;8.93;2.25;;;;;;;7.74;94.29;98340.66;6166871;23;20044;-81
2022/11/22 10:43:38;;;;;;;12.73;3.10;;;;;;;7.75;94.32;98345.78;6121956;23;20029;-82
2022/11/22 10:46:24;;;;;;;10.30;2.45;;;;;;;7.78;94.15;98344.63;6138382;23;20108;-81
2022/11/22 10:48:59;;;;;;;17.38;4.75;;;;;;;7.84;93.84;98344.03;6098622;23;20472;-82
2022/11/22 10:51:45;;;;;;;11.95;4.20;;;;;;;7.85;93.93;98340.41;6143196;23;20024;-81
2022/11/22 10:54:17;;;;;;;9.07;3.97;;;;;;;7.89;93.74;98346.22;6093781;23;20536;-82
2022/11/22 10:57:05;;;;;;;15.85;4.68;;;;;;;7.90;93.80;98337.28;6193223;23;20028;-82
2022/11/22 10:59:38;;;;;;;9.82;4.63;;;;;;;7.90;93.55;98342.59;6142386;23;20025;-82
2022/11/22 11:02:11;;;;;;;10.73;4.00;;;;;;;7.92;93.45;98348.53;6192658;23;20025;-81
2022/11/22 11:04:39;;;;;;;17.13;4.60;;;;;;;7.93;93.69;98335.16;6191951;22;20018;-82
2022/11/22 11:07:12;;;;;;;12.75;4.40;;;;;;;7.94;93.25;98347.41;6118719;23;20021;-82
2022/11/22 11:09:48;;;;;;;8.13;3.38;;;;;;;7.93;93.08;98342.25;6095160;23;20097;-81
2022/11/22 11:12:42;;;;;;;13.80;3.95;;;;;;;7.93;93.01;98340.44;6110377;23;20080;-82
2022/11/22 11:15:17;;;;;;;18.45;5.97;;;;;;;7.94;92.62;98336.84;6192535;23;20516;-81
2022/11/22 11:17:44;;;;;;;18.73;4.55;;;;;;;7.99;92.77;98331.09;6093070;23;20018;-81
2022/11/22 11:20:24;;;;;;;9.23;4.53;;;;;;;7.95;92.55;98335.00;6191771;23;20040;-81
2022/11/22 11:22:51;;;;;;;10.13;3.53;;;;;;;8.01;92.39;98329.09;6139425;23;20032;-81
2022/11/22 11:25:39;;;;;;;12.40;3.75;;;;;;;8.02;92.42;98315.72;6141983;23;20021;-81
2022/11/22 11:28:25;;;;;;;15.23;4.88;;;;;;;8.05;92.35;98314.59;6169096;23;20354;-81
2022/11/22 11:30:54;;;;;;;11.18;3.80;;;;;;;8.05;92.41;98307.47;6121056;23;20026;-82
2022/11/22 11:33:27;;;;;;;10.90;3.50;;;;;;;8.08;92.11;98310.81;6169218;23;20390;-82
2022/11/22 11:36:06;;;;;;;9.82;3.30;;;;;;;8.10;92.16;98312.31;6143944;23;20076;-84
2022/11/22 11:38:49;;;;;;;9.27;3.20;;;;;;;8.05;91.89;98310.13;6144279;23;20033;-81
2022/11/22 11:41:23;;;;;;;13.63;3.25;;;;;;;8.08;91.71;98303.69;6096594;23;20315;-81
2022/11/22 11:43:58;;;;;;;11.82;4.55;;;;;;;8.11;91.64;98308.66;6143314;23;20052;-81
2022/11/22 11:46:49;;;;;;;8.73;3.22;;;;;;;8.14;91.40;98299.59;6141826;23;20029;-81
2022/11/22 11:49:19;;;;;;;7.88;2.67;;;;;;;8.14;92.02;98299.59;6096404;23;20021;-83
2022/11/22 11:51:48;;;;;;;7.95;2.75;;;;;;;8.15;91.48;98295.97;6169481;23;21000;-82
2022/11/22 11:54:17;;;;;;;8.55;3.30;;;;;;;8.16;91.70;98287.84;6169920;23;20362;-81
2022/11/22 11:56:51;;;;;;;13.32;3.28;;;;;;;8.15;91.42;98288.84;6168733;23;20014;-81
2022/11/22 11:59:21;;;;;;;8.00;2.88;;;;;;;8.19;91.26;98286.72;6119413;23;20080;-81
2022/11/22 12:01:52;;;;;;;16.17;3.38;;;;;;;8.20;91.04;98277.81;6169231;23;20031;-82
2022/11/22 12:04:23;;;;;;;7.47;2.97;;;;;;;8.20;90.98;98278.63;6094257;23;20076;-81
2022/11/22 12:07:17;;;;;;;6.22;2.22;;;;;;;8.14;90.38;98279.28;6168957;23;20028;-81
2022/11/22 12:09:47;;;;;;;12.35;2.97;;;;;;;8.23;90.93;98274.84;6025595;23;20045;-81